createdAt,value
2023-02-19T00:00:03.969Z,43.17
2023-02-19T00:00:26.701Z,41.95
2023-02-19T00:00:49.403Z,40.42
2023-02-19T00:01:13.590Z,38.28
2023-02-19T00:01:37.610Z,37.50
2023-02-19T00:02:00.255Z,41.00
2023-02-19T00:02:22.928Z,42.38
2023-02-19T00:02:46.905Z,40.83
2023-02-19T00:03:09.620Z,38.72
2023-02-19T00:03:32.360Z,39.88
2023-02-19T00:03:56.490Z,39.58
2023-02-19T00:04:20.357Z,43.58
2023-02-19T00:04:44.686Z,42.30
2023-02-19T00:05:07.932Z,45.33
2023-02-19T00:05:30.739Z,42.97
2023-02-19T00:05:53.452Z,40.65
2023-02-19T00:06:16.175Z,43.60
2023-02-19T00:06:38.888Z,46.72
2023-02-19T00:07:01.637Z,47.97
2023-02-19T00:07:24.348Z,45.00
2023-02-19T00:07:47.037Z,44.50
2023-02-19T00:08:09.758Z,42.85
2023-02-19T00:08:32.448Z,43.83
2023-02-19T00:08:55.360Z,41.55
2023-02-19T00:09:19.097Z,44.97
2023-02-19T00:09:41.788Z,43.92
2023-02-19T00:10:04.682Z,42.33
2023-02-19T00:10:27.443Z,44.60
2023-02-19T00:10:50.163Z,43.80
2023-02-19T00:11:16.548Z,43.92
2023-02-19T00:11:39.446Z,43.55
2023-02-19T00:12:02.138Z,43.70
2023-02-19T00:12:24.835Z,41.75
2023-02-19T00:12:47.526Z,43.85
2023-02-19T00:13:10.502Z,45.38
2023-02-19T00:13:36.004Z,47.92
2023-02-19T00:13:59.002Z,41.67
2023-02-19T00:14:21.972Z,43.97
2023-02-19T00:14:44.822Z,43.10
2023-02-19T00:15:07.987Z,42.15
2023-02-19T00:15:32.660Z,41.58
2023-02-19T00:15:56.703Z,40.55
2023-02-19T00:16:20.612Z,41.05
2023-02-19T00:16:43.413Z,43.20
2023-02-19T00:17:06.121Z,42.90
2023-02-19T00:17:28.808Z,42.08
2023-02-19T00:17:51.764Z,43.60
2023-02-19T00:18:14.473Z,40.10
2023-02-19T00:18:37.282Z,39.42
2023-02-19T00:19:00.336Z,41.13
2023-02-19T00:19:23.695Z,42.10
2023-02-19T00:19:47.774Z,41.88
2023-02-19T00:20:10.897Z,39.58
2023-02-19T00:20:33.541Z,41.95
2023-02-19T00:20:57.491Z,44.42
2023-02-19T00:21:20.446Z,43.75
2023-02-19T00:21:43.201Z,42.03
2023-02-19T00:22:05.929Z,44.58
2023-02-19T00:22:28.799Z,45.55
2023-02-19T00:22:51.426Z,44.03
2023-02-19T00:23:14.208Z,44.40
2023-02-19T00:23:37.267Z,41.90
2023-02-19T00:24:00.953Z,43.53
2023-02-19T00:24:23.669Z,41.83
2023-02-19T00:24:48.409Z,43.53
2023-02-19T00:25:11.977Z,42.10
2023-02-19T00:25:37.334Z,40.40
2023-02-19T00:26:17.296Z,38.45
2023-02-19T00:26:41.559Z,42.42
2023-02-19T00:27:04.338Z,43.70
2023-02-19T00:27:27.003Z,41.25
2023-02-19T00:27:50.061Z,43.78
2023-02-19T00:28:12.908Z,39.85
2023-02-19T00:28:35.692Z,43.70
2023-02-19T00:28:58.702Z,44.20
2023-02-19T00:29:21.924Z,43.42
2023-02-19T00:29:44.773Z,43.22
2023-02-19T00:30:09.006Z,42.90
2023-02-19T00:30:31.712Z,42.58
2023-02-19T00:30:54.686Z,39.80
2023-02-19T00:31:19.333Z,39.67
2023-02-19T00:31:42.714Z,40.78
2023-02-19T00:32:05.822Z,40.40
2023-02-19T00:32:28.498Z,43.15
2023-02-19T00:32:51.987Z,41.40
2023-02-19T00:33:14.803Z,40.45
2023-02-19T00:33:37.721Z,41.65
2023-02-19T00:34:02.049Z,44.38
2023-02-19T00:34:24.769Z,41.85
2023-02-19T00:34:48.862Z,41.03
2023-02-19T00:35:11.549Z,40.05
2023-02-19T00:35:34.833Z,39.33
2023-02-19T00:36:00.798Z,42.20
2023-02-19T00:36:23.816Z,40.95
2023-02-19T00:36:46.594Z,41.00
2023-02-19T00:37:09.281Z,38.90
2023-02-19T00:37:32.029Z,40.95
2023-02-19T00:37:54.775Z,38.95
2023-02-19T00:38:17.561Z,39.05
2023-02-19T00:38:41.032Z,40.25
2023-02-19T00:39:03.934Z,40.08
2023-02-19T00:39:29.188Z,38.35
2023-02-19T00:39:51.921Z,43.63
2023-02-19T00:40:14.889Z,45.83
2023-02-19T00:40:38.794Z,42.00
2023-02-19T00:41:01.721Z,42.38
2023-02-19T00:41:24.651Z,39.00
2023-02-19T00:41:47.412Z,38.70
2023-02-19T00:42:10.253Z,40.85
2023-02-19T00:42:32.970Z,41.13
2023-02-19T00:42:55.697Z,40.00
2023-02-19T00:43:18.571Z,38.72
2023-02-19T00:43:41.323Z,41.53
2023-02-19T00:44:05.169Z,42.58
2023-02-19T00:44:28.026Z,39.35
2023-02-19T00:44:50.729Z,43.13
2023-02-19T00:45:13.935Z,40.88
2023-02-19T00:45:36.765Z,46.13
2023-02-19T00:45:59.485Z,40.05
2023-02-19T00:46:23.773Z,41.38
2023-02-19T00:46:47.848Z,41.28
2023-02-19T00:47:10.615Z,43.63
2023-02-19T00:47:33.542Z,46.38
2023-02-19T00:47:56.367Z,42.35
2023-02-19T00:48:19.102Z,41.55
2023-02-19T00:48:41.777Z,41.75
2023-02-19T00:49:04.680Z,44.03
2023-02-19T00:49:27.380Z,40.42
2023-02-19T00:49:51.597Z,41.95
2023-02-19T00:50:14.391Z,41.60
2023-02-19T00:50:37.252Z,40.22
2023-02-19T00:51:00.016Z,42.38
2023-02-19T00:51:23.500Z,40.00
2023-02-19T00:51:46.410Z,40.33
2023-02-19T00:52:09.186Z,39.58
2023-02-19T00:52:32.015Z,41.05
2023-02-19T00:52:54.787Z,41.78
2023-02-19T00:53:17.607Z,41.05
2023-02-19T00:53:40.340Z,40.47
2023-02-19T00:54:03.305Z,41.13
2023-02-19T00:54:26.058Z,40.42
2023-02-19T00:54:48.786Z,40.72
2023-02-19T00:55:11.533Z,42.53
2023-02-19T00:55:34.277Z,39.13
2023-02-19T00:55:56.997Z,40.67
2023-02-19T00:56:19.835Z,41.05
2023-02-19T00:56:42.590Z,38.55
2023-02-19T00:57:06.731Z,38.30
2023-02-19T00:57:29.312Z,41.45
2023-02-19T00:57:52.061Z,39.58
2023-02-19T00:58:14.802Z,41.92
2023-02-19T00:58:37.613Z,42.78
2023-02-19T00:59:00.808Z,40.92
2023-02-19T00:59:23.455Z,42.42
2023-02-19T00:59:46.326Z,43.15
2023-02-19T01:00:11.206Z,46.08
2023-02-19T01:00:34.088Z,42.45
2023-02-19T01:00:56.882Z,37.83
2023-02-19T01:01:20.826Z,37.28
2023-02-19T01:01:44.734Z,38.75
2023-02-19T01:02:07.942Z,38.65
2023-02-19T01:02:30.683Z,37.90
2023-02-19T01:02:53.511Z,38.08
2023-02-19T01:03:16.312Z,41.45
2023-02-19T01:03:39.376Z,42.75
2023-02-19T01:04:02.090Z,37.83
2023-02-19T01:04:24.911Z,38.63
2023-02-19T01:04:47.764Z,38.47
2023-02-19T01:05:13.018Z,38.95
2023-02-19T01:05:35.736Z,39.10
2023-02-19T01:05:58.515Z,42.53
2023-02-19T01:06:21.511Z,41.72
2023-02-19T01:06:44.225Z,40.63
2023-02-19T01:07:07.955Z,38.08
2023-02-19T01:07:31.987Z,39.08
2023-02-19T01:07:54.727Z,38.35
2023-02-19T01:08:17.470Z,38.00
2023-02-19T01:08:40.164Z,40.63
2023-02-19T01:09:02.858Z,40.92
2023-02-19T01:09:25.577Z,39.28
2023-02-19T01:09:48.422Z,36.63
2023-02-19T01:10:11.279Z,37.35
2023-02-19T01:10:34.022Z,37.05
2023-02-19T01:10:56.772Z,43.25
2023-02-19T01:11:20.549Z,42.13
2023-02-19T01:11:43.372Z,40.53
2023-02-19T01:12:06.484Z,40.97
2023-02-19T01:12:29.313Z,39.55
2023-02-19T01:12:51.975Z,42.08
2023-02-19T01:13:14.758Z,41.17
2023-02-19T01:13:37.501Z,42.10
2023-02-19T01:14:00.304Z,39.95
2023-02-19T01:14:23.006Z,37.90
2023-02-19T01:14:45.912Z,37.65
2023-02-19T01:15:09.606Z,35.05
2023-02-19T01:15:33.266Z,36.28
2023-02-19T01:16:02.529Z,41.53
2023-02-19T01:16:25.395Z,37.13
2023-02-19T01:16:48.110Z,38.83
2023-02-19T01:17:10.820Z,38.70
2023-02-19T01:17:35.485Z,37.67
2023-02-19T01:18:00.757Z,37.63
2023-02-19T01:18:23.510Z,35.90
2023-02-19T01:18:46.626Z,37.33
2023-02-19T01:19:11.815Z,35.00
2023-02-19T01:19:34.492Z,37.00
2023-02-19T01:19:57.244Z,36.75
2023-02-19T01:20:21.504Z,32.28
2023-02-19T01:20:44.780Z,33.00
2023-02-19T01:21:08.129Z,34.97
2023-02-19T01:21:31.283Z,36.78
2023-02-19T01:21:54.011Z,36.85
2023-02-19T01:22:19.171Z,37.67
2023-02-19T01:22:41.831Z,37.03
2023-02-19T01:23:04.481Z,32.25
2023-02-19T01:23:27.300Z,32.38
2023-02-19T01:23:50.019Z,33.83
2023-02-19T01:24:12.693Z,37.28
2023-02-19T01:24:35.445Z,38.97
2023-02-19T01:25:00.632Z,37.13
2023-02-19T01:25:23.491Z,35.90
2023-02-19T01:25:46.236Z,34.03
2023-02-19T01:26:10.885Z,33.42
2023-02-19T01:26:33.776Z,38.50
2023-02-19T01:26:56.485Z,37.35
2023-02-19T01:27:19.208Z,34.13
2023-02-19T01:27:41.933Z,30.70
2023-02-19T01:28:04.786Z,32.50
2023-02-19T01:28:27.646Z,34.17
2023-02-19T01:28:50.339Z,34.33
2023-02-19T01:29:13.105Z,32.30
2023-02-19T01:29:36.090Z,31.10
2023-02-19T01:29:58.766Z,33.38
2023-02-19T01:30:21.645Z,31.73
2023-02-19T01:30:44.399Z,30.92
2023-02-19T01:31:08.855Z,32.65
2023-02-19T01:31:32.228Z,31.35
2023-02-19T01:31:55.084Z,31.77
2023-02-19T01:32:17.982Z,31.77
2023-02-19T01:32:40.728Z,30.95
2023-02-19T01:33:04.194Z,31.85
2023-02-19T01:33:26.910Z,31.95
2023-02-19T01:33:51.154Z,34.65
2023-02-19T01:34:14.969Z,35.97
2023-02-19T01:34:37.646Z,33.95
2023-02-19T01:35:00.360Z,33.63
2023-02-19T01:35:24.657Z,32.20
2023-02-19T01:35:47.365Z,32.35
2023-02-19T01:36:11.750Z,34.60
2023-02-19T01:36:34.830Z,36.65
2023-02-19T01:36:57.530Z,33.17
2023-02-19T01:37:20.440Z,35.50
2023-02-19T01:37:43.197Z,34.28
2023-02-19T01:38:07.853Z,32.53
2023-02-19T01:38:30.654Z,32.63
2023-02-19T01:38:53.615Z,33.08
2023-02-19T01:39:16.286Z,31.30
2023-02-19T01:39:39.107Z,31.33
2023-02-19T01:40:01.834Z,33.90
2023-02-19T01:40:24.587Z,31.50
2023-02-19T01:40:55.125Z,32.35
2023-02-19T01:41:18.882Z,34.47
2023-02-19T01:41:42.054Z,35.95
2023-02-19T01:42:05.172Z,33.58
2023-02-19T01:42:27.937Z,31.48
2023-02-19T01:42:50.670Z,35.90
2023-02-19T01:43:16.028Z,33.72
2023-02-19T01:43:55.420Z,34.08
2023-02-19T01:44:54.927Z,33.53
2023-02-19T01:45:28.851Z,31.60
2023-02-19T01:45:51.594Z,35.00
2023-02-19T01:46:14.357Z,33.92
2023-02-19T01:46:37.704Z,31.73
2023-02-19T01:47:00.647Z,28.75
2023-02-19T01:47:23.476Z,34.33
2023-02-19T01:47:46.562Z,30.25
2023-02-19T01:48:10.931Z,28.58
2023-02-19T01:48:34.895Z,30.90
2023-02-19T01:48:58.875Z,30.58
2023-02-19T01:49:23.524Z,29.58
2023-02-19T01:49:50.283Z,26.60
2023-02-19T01:50:13.198Z,27.05
2023-02-19T01:50:40.379Z,26.85
2023-02-19T01:51:04.467Z,25.10
2023-02-19T01:51:27.870Z,28.55
2023-02-19T01:51:53.316Z,29.30
2023-02-19T01:52:17.608Z,29.02
2023-02-19T01:52:40.342Z,28.63
2023-02-19T01:53:05.457Z,29.50
2023-02-19T01:53:29.632Z,29.75
2023-02-19T01:53:55.065Z,29.35
2023-02-19T01:54:20.177Z,28.15
2023-02-19T01:54:43.534Z,30.80
2023-02-19T01:55:07.685Z,28.85
2023-02-19T01:55:30.437Z,29.92
2023-02-19T01:55:54.293Z,27.42
2023-02-19T01:56:17.119Z,26.13
2023-02-19T01:56:40.659Z,25.92
2023-02-19T01:57:04.338Z,27.45
2023-02-19T01:57:28.648Z,28.85
2023-02-19T01:57:52.972Z,28.85
2023-02-19T01:58:15.838Z,28.85
2023-02-19T01:58:38.573Z,26.85
2023-02-19T01:59:01.988Z,26.13
2023-02-19T01:59:24.713Z,25.00
2023-02-19T01:59:47.450Z,23.48
2023-02-19T02:00:12.323Z,26.52
2023-02-19T02:00:35.181Z,27.70
2023-02-19T02:00:58.138Z,27.73
2023-02-19T02:01:20.809Z,27.95
2023-02-19T02:01:44.075Z,27.40
2023-02-19T02:02:06.894Z,27.73
2023-02-19T02:02:29.703Z,26.15
2023-02-19T02:02:53.235Z,27.67
2023-02-19T02:03:16.659Z,29.63
2023-02-19T02:03:40.506Z,31.70
2023-02-19T02:04:03.273Z,26.35
2023-02-19T02:04:28.419Z,25.77
2023-02-19T02:04:51.218Z,24.35
2023-02-19T02:05:18.192Z,24.73
2023-02-19T02:05:50.144Z,22.70
2023-02-19T02:06:14.263Z,24.95
2023-02-19T02:06:39.684Z,26.40
2023-02-19T02:07:03.711Z,25.50
2023-02-19T02:07:45.263Z,25.85
2023-02-19T02:08:26.443Z,26.85
2023-02-19T02:09:09.298Z,27.17
2023-02-19T02:09:50.595Z,24.23
2023-02-19T02:10:22.600Z,27.95
2023-02-19T02:10:45.388Z,29.05
2023-02-19T02:11:08.263Z,27.90
2023-02-19T02:11:31.564Z,25.27
2023-02-19T02:11:54.741Z,26.42
2023-02-19T02:12:17.364Z,27.98
2023-02-19T02:12:40.190Z,25.08
2023-02-19T02:13:02.917Z,26.52
2023-02-19T02:13:25.568Z,25.13
2023-02-19T02:13:48.321Z,27.55
2023-02-19T02:14:11.054Z,26.55
2023-02-19T02:14:35.217Z,22.55
2023-02-19T02:14:57.934Z,29.08
2023-02-19T02:15:22.461Z,29.45
2023-02-19T02:15:50.960Z,27.70
2023-02-19T02:16:20.660Z,24.67
2023-02-19T02:16:47.410Z,27.50
2023-02-19T02:17:13.772Z,28.52
2023-02-19T02:17:39.870Z,26.08
2023-02-19T02:18:05.418Z,28.63
2023-02-19T02:18:33.126Z,27.35
2023-02-19T02:19:00.567Z,28.77
2023-02-19T02:19:40.466Z,25.60
2023-02-19T02:20:15.419Z,30.02
2023-02-19T02:20:51.536Z,28.75
2023-02-19T02:21:47.043Z,28.77
2023-02-19T02:22:12.638Z,26.83
2023-02-19T02:22:36.909Z,25.70
2023-02-19T02:23:01.438Z,28.05
2023-02-19T02:23:30.251Z,28.90
2023-02-19T02:24:03.254Z,30.67
2023-02-19T02:24:52.138Z,29.50
2023-02-19T02:25:35.554Z,25.67
2023-02-19T02:26:08.590Z,28.90
2023-02-19T02:26:42.316Z,26.00
2023-02-19T02:27:17.515Z,32.15
2023-02-19T02:27:44.166Z,31.98
2023-02-19T02:28:17.396Z,33.22
2023-02-19T02:29:15.005Z,35.17
2023-02-19T02:30:07.067Z,34.53
2023-02-19T02:30:36.911Z,33.55
2023-02-19T02:30:59.675Z,32.22
2023-02-19T02:31:23.488Z,34.42
2023-02-19T02:31:47.775Z,34.17
2023-02-19T02:32:11.415Z,36.05
2023-02-19T02:32:35.706Z,32.63
2023-02-19T02:33:01.270Z,33.47
2023-02-19T02:33:28.968Z,29.13
2023-02-19T02:33:54.786Z,33.47
2023-02-19T02:34:19.391Z,32.03
2023-02-19T02:34:45.762Z,29.35
2023-02-19T02:35:09.782Z,28.73
2023-02-19T02:35:35.074Z,32.15
2023-02-19T02:35:59.104Z,31.65
2023-02-19T02:36:24.812Z,29.70
2023-02-19T02:36:50.047Z,30.23
2023-02-19T02:37:12.804Z,31.42
2023-02-19T02:37:36.768Z,29.80
2023-02-19T02:38:02.882Z,28.25
2023-02-19T02:38:28.343Z,29.77
2023-02-19T02:38:52.986Z,32.90
2023-02-19T02:39:17.756Z,32.08
2023-02-19T02:39:40.483Z,30.02
2023-02-19T02:40:03.491Z,33.85
2023-02-19T02:40:26.242Z,32.63
2023-02-19T02:40:49.001Z,31.97
2023-02-19T02:41:12.439Z,32.75
2023-02-19T02:41:35.531Z,33.22
2023-02-19T02:42:17.782Z,35.78
2023-02-19T02:42:40.531Z,28.42
2023-02-19T02:43:03.283Z,30.95
2023-02-19T02:43:26.094Z,32.17
2023-02-19T02:43:48.878Z,33.38
2023-02-19T02:44:14.882Z,31.10
2023-02-19T02:44:41.763Z,33.03
2023-02-19T02:45:37.716Z,31.95
2023-02-19T02:46:00.613Z,29.25
2023-02-19T02:46:24.708Z,30.23
2023-02-19T02:46:47.564Z,31.90
2023-02-19T02:47:30.245Z,34.05
2023-02-19T02:47:54.392Z,30.08
2023-02-19T02:48:21.456Z,28.80
2023-02-19T02:48:45.474Z,28.63
2023-02-19T02:49:11.096Z,30.35
2023-02-19T02:49:33.962Z,29.70
2023-02-19T02:50:05.544Z,29.55
2023-02-19T02:50:29.771Z,30.48
2023-02-19T02:50:55.526Z,28.65
2023-02-19T02:51:20.102Z,30.25
2023-02-19T02:51:44.960Z,31.17
2023-02-19T02:52:27.652Z,32.08
2023-02-19T02:53:10.626Z,34.85
2023-02-19T02:53:53.830Z,33.50
2023-02-19T02:54:34.394Z,32.33
2023-02-19T02:55:03.165Z,31.60
2023-02-19T02:55:26.086Z,34.00
2023-02-19T02:55:50.424Z,33.78
2023-02-19T02:56:14.106Z,31.75
2023-02-19T02:56:36.849Z,37.72
2023-02-19T02:56:59.641Z,34.08
2023-02-19T02:57:22.375Z,38.53
2023-02-19T02:57:45.165Z,38.22
2023-02-19T02:58:08.181Z,37.67
2023-02-19T02:58:30.897Z,33.17
2023-02-19T02:58:53.619Z,36.15
2023-02-19T02:59:18.144Z,38.13
2023-02-19T02:59:40.875Z,39.63
2023-02-19T03:00:06.817Z,39.20
2023-02-19T03:00:51.994Z,37.08
2023-02-19T03:01:35.776Z,35.88
2023-02-19T03:02:12.475Z,41.83
2023-02-19T03:02:35.376Z,36.28
2023-02-19T03:02:58.142Z,37.90
2023-02-19T03:03:22.037Z,38.17
2023-02-19T03:03:45.661Z,36.75
2023-02-19T03:04:09.936Z,36.78
2023-02-19T03:04:35.471Z,36.33
2023-02-19T03:05:21.439Z,37.45
2023-02-19T03:05:53.463Z,37.08
2023-02-19T03:06:17.033Z,37.50
2023-02-19T03:06:39.786Z,39.00
2023-02-19T03:07:06.011Z,37.97
2023-02-19T03:07:30.406Z,41.47
2023-02-19T03:07:54.720Z,38.53
2023-02-19T03:08:18.901Z,36.75
2023-02-19T03:08:42.828Z,36.05
2023-02-19T03:09:09.854Z,35.53
2023-02-19T03:09:35.062Z,35.95
2023-02-19T03:09:58.221Z,35.58
2023-02-19T03:10:22.666Z,38.17
2023-02-19T03:10:47.813Z,39.88
2023-02-19T03:11:29.672Z,39.97
2023-02-19T03:12:10.729Z,35.80
2023-02-19T03:12:52.302Z,35.92
2023-02-19T03:13:35.486Z,36.53
2023-02-19T03:14:19.700Z,35.72
2023-02-19T03:15:04.427Z,34.97
2023-02-19T03:15:47.061Z,36.55
2023-02-19T03:16:32.533Z,35.90
2023-02-19T03:17:20.112Z,34.45
2023-02-19T03:18:05.566Z,34.88
2023-02-19T03:18:47.151Z,34.90
2023-02-19T03:19:20.642Z,35.95
2023-02-19T03:19:44.809Z,34.72
2023-02-19T03:20:09.926Z,33.40
2023-02-19T03:20:36.169Z,31.42
2023-02-19T03:20:59.696Z,31.55
2023-02-19T03:21:22.402Z,34.55
2023-02-19T03:21:46.905Z,35.13
2023-02-19T03:22:12.492Z,32.53
2023-02-19T03:22:36.501Z,31.63
2023-02-19T03:22:59.180Z,32.75
2023-02-19T03:23:22.086Z,32.95
2023-02-19T03:24:03.689Z,34.55
2023-02-19T03:24:47.198Z,32.17
2023-02-19T03:25:30.426Z,32.38
2023-02-19T03:26:05.293Z,34.70
2023-02-19T03:26:28.024Z,34.35
2023-02-19T03:26:54.290Z,31.50
2023-02-19T03:27:17.540Z,31.52
2023-02-19T03:27:41.146Z,33.38
2023-02-19T03:28:05.440Z,32.67
2023-02-19T03:28:48.187Z,32.88
2023-02-19T03:29:23.274Z,30.70
2023-02-19T03:29:46.307Z,30.90
2023-02-19T03:30:11.923Z,34.38
2023-02-19T03:30:36.513Z,33.65
2023-02-19T03:30:59.185Z,35.13
2023-02-19T03:31:24.254Z,34.20
2023-02-19T03:31:47.123Z,34.67
2023-02-19T03:32:11.674Z,33.42
2023-02-19T03:32:36.539Z,34.72
2023-02-19T03:33:00.471Z,34.53
2023-02-19T03:33:24.163Z,30.13
2023-02-19T03:33:50.402Z,32.13
2023-02-19T03:34:15.445Z,32.25
2023-02-19T03:34:43.201Z,32.78
2023-02-19T03:35:08.839Z,31.23
2023-02-19T03:35:32.502Z,34.13
2023-02-19T03:35:57.420Z,40.42
2023-02-19T03:36:25.808Z,33.63
2023-02-19T03:36:53.850Z,33.22
2023-02-19T03:37:17.447Z,34.58
2023-02-19T03:37:42.495Z,34.60
2023-02-19T03:38:07.224Z,31.17
2023-02-19T03:38:32.406Z,31.65
2023-02-19T03:38:58.932Z,30.92
2023-02-19T03:39:22.572Z,32.42
2023-02-19T03:39:45.372Z,32.53
2023-02-19T03:40:09.685Z,33.47
2023-02-19T03:40:34.635Z,31.48
2023-02-19T03:41:00.438Z,29.35
2023-02-19T03:41:25.879Z,34.67
2023-02-19T03:41:53.662Z,34.58
2023-02-19T03:42:21.522Z,34.15
2023-02-19T03:42:46.712Z,32.85
2023-02-19T03:43:16.377Z,31.92
2023-02-19T03:43:41.241Z,32.03
2023-02-19T03:44:07.847Z,33.15
2023-02-19T03:44:36.467Z,31.08
2023-02-19T03:45:08.323Z,31.65
2023-02-19T03:45:36.755Z,30.20
2023-02-19T03:46:03.058Z,32.28
2023-02-19T03:46:29.921Z,34.38
2023-02-19T03:46:55.020Z,34.15
2023-02-19T03:47:19.703Z,33.35
2023-02-19T03:47:45.930Z,34.70
2023-02-19T03:48:19.067Z,35.47
2023-02-19T03:48:45.452Z,35.67
2023-02-19T03:49:11.023Z,35.08
2023-02-19T03:49:38.526Z,35.33
2023-02-19T03:50:03.185Z,34.17
2023-02-19T03:50:27.712Z,35.28
2023-02-19T03:50:55.347Z,36.50
2023-02-19T03:51:31.078Z,32.47
2023-02-19T03:51:55.557Z,33.67
2023-02-19T03:52:24.192Z,30.65
2023-02-19T03:52:52.637Z,35.95
2023-02-19T03:53:18.626Z,35.22
2023-02-19T03:53:49.518Z,34.40
2023-02-19T03:54:13.256Z,33.95
2023-02-19T03:54:38.101Z,34.55
2023-02-19T03:55:03.376Z,32.00
2023-02-19T03:55:28.392Z,34.83
2023-02-19T03:55:54.306Z,32.65
2023-02-19T03:56:18.958Z,33.25
2023-02-19T03:56:44.491Z,32.83
2023-02-19T03:57:11.050Z,33.35
2023-02-19T03:57:39.635Z,32.85
2023-02-19T03:58:05.453Z,35.53
2023-02-19T03:58:30.544Z,33.60
2023-02-19T03:58:57.061Z,33.92
2023-02-19T03:59:21.280Z,36.53
2023-02-19T03:59:46.878Z,32.67
2023-02-19T04:00:11.536Z,32.38
2023-02-19T04:00:37.744Z,34.58
2023-02-19T04:01:04.026Z,33.08
2023-02-19T04:01:31.616Z,33.13
2023-02-19T04:01:55.562Z,37.22
2023-02-19T04:02:19.726Z,34.50
2023-02-19T04:02:44.810Z,34.47
2023-02-19T04:03:09.483Z,35.15
2023-02-19T04:03:34.497Z,35.80
2023-02-19T04:03:59.032Z,32.85
2023-02-19T04:04:24.068Z,34.30
2023-02-19T04:04:49.595Z,35.03
2023-02-19T04:05:14.259Z,35.97
2023-02-19T04:05:40.243Z,36.80
2023-02-19T04:06:04.658Z,32.45
2023-02-19T04:06:29.434Z,33.47
2023-02-19T04:06:54.495Z,36.85
2023-02-19T04:07:17.267Z,31.40
2023-02-19T04:07:42.179Z,33.58
2023-02-19T04:08:09.138Z,31.90
2023-02-19T04:08:32.029Z,31.25
2023-02-19T04:08:56.933Z,35.50
2023-02-19T04:09:19.646Z,34.67
2023-02-19T04:09:44.018Z,34.85
2023-02-19T04:10:07.083Z,34.15
2023-02-19T04:10:29.958Z,31.75
2023-02-19T04:10:52.603Z,30.67
2023-02-19T04:11:15.992Z,32.63
2023-02-19T04:11:38.912Z,32.03
2023-02-19T04:12:01.746Z,33.65
2023-02-19T04:12:24.488Z,37.03
2023-02-19T04:12:49.911Z,30.55
2023-02-19T04:13:18.483Z,31.88
2023-02-19T04:13:44.107Z,33.33
2023-02-19T04:14:08.938Z,32.45
2023-02-19T04:14:33.598Z,32.85
2023-02-19T04:15:01.060Z,31.42
2023-02-19T04:15:25.783Z,34.00
2023-02-19T04:15:48.978Z,31.98
2023-02-19T04:16:15.430Z,31.83
2023-02-19T04:16:40.715Z,32.38
2023-02-19T04:17:05.641Z,32.55
2023-02-19T04:17:29.937Z,31.92
2023-02-19T04:17:55.716Z,29.75
2023-02-19T04:18:19.964Z,30.60
2023-02-19T04:18:42.729Z,31.58
2023-02-19T04:19:08.049Z,31.77
2023-02-19T04:19:31.892Z,32.88
2023-02-19T04:19:54.488Z,37.40
2023-02-19T04:20:17.320Z,32.42
2023-02-19T04:20:41.343Z,30.52
2023-02-19T04:21:04.300Z,31.52
2023-02-19T04:21:27.134Z,34.35
2023-02-19T04:21:49.932Z,31.45
2023-02-19T04:22:12.713Z,29.42
2023-02-19T04:22:36.552Z,29.23
2023-02-19T04:22:59.297Z,30.52
2023-02-19T04:23:23.646Z,32.53
2023-02-19T04:23:46.483Z,31.05
2023-02-19T04:24:11.942Z,32.83
2023-02-19T04:24:37.466Z,32.33
2023-02-19T04:25:00.994Z,34.05
2023-02-19T04:25:24.389Z,31.63
2023-02-19T04:25:48.974Z,30.55
2023-02-19T04:26:11.694Z,34.00
2023-02-19T04:26:35.133Z,32.20
2023-02-19T04:26:57.949Z,30.95
2023-02-19T04:27:20.701Z,31.15
2023-02-19T04:27:44.379Z,29.42
2023-02-19T04:28:07.811Z,30.90
2023-02-19T04:28:30.692Z,30.55
2023-02-19T04:28:54.224Z,32.30
2023-02-19T04:29:16.928Z,31.98
2023-02-19T04:29:39.746Z,31.80
2023-02-19T04:30:02.422Z,32.85
2023-02-19T04:30:25.542Z,30.88
2023-02-19T04:30:48.313Z,31.50
2023-02-19T04:31:11.351Z,31.85
2023-02-19T04:31:35.942Z,28.95
2023-02-19T04:32:00.166Z,31.30
2023-02-19T04:32:22.807Z,31.23
2023-02-19T04:32:45.641Z,31.40
2023-02-19T04:33:08.352Z,32.88
2023-02-19T04:33:31.095Z,30.55
2023-02-19T04:33:53.900Z,30.63
2023-02-19T04:34:16.574Z,31.15
2023-02-19T04:34:39.369Z,29.58
2023-02-19T04:35:05.229Z,31.30
2023-02-19T04:35:27.870Z,29.77
2023-02-19T04:35:50.588Z,33.10
2023-02-19T04:36:14.478Z,32.13
2023-02-19T04:36:37.179Z,34.55
2023-02-19T04:36:59.902Z,32.45
2023-02-19T04:37:22.663Z,31.52
2023-02-19T04:37:45.363Z,30.58
2023-02-19T04:38:08.166Z,29.23
2023-02-19T04:38:30.919Z,30.80
2023-02-19T04:38:53.742Z,30.60
2023-02-19T04:39:16.561Z,28.63
2023-02-19T04:39:39.291Z,32.25
2023-02-19T04:40:01.988Z,29.63
2023-02-19T04:40:24.813Z,30.38
2023-02-19T04:40:47.667Z,31.65
2023-02-19T04:41:10.646Z,31.15
2023-02-19T04:41:33.658Z,30.60
2023-02-19T04:41:56.354Z,29.90
2023-02-19T04:42:19.037Z,31.15
2023-02-19T04:42:41.798Z,30.40
2023-02-19T04:43:04.469Z,29.67
2023-02-19T04:43:27.227Z,28.67
2023-02-19T04:43:50.083Z,31.65
2023-02-19T04:44:12.927Z,30.30
2023-02-19T04:44:35.677Z,30.75
2023-02-19T04:44:58.418Z,31.05
2023-02-19T04:45:21.232Z,31.25
2023-02-19T04:45:44.151Z,31.40
2023-02-19T04:46:07.030Z,31.75
2023-02-19T04:46:29.825Z,32.17
2023-02-19T04:46:52.613Z,32.40
2023-02-19T04:47:17.945Z,30.55
2023-02-19T04:47:40.619Z,28.08
2023-02-19T04:48:03.403Z,33.97
2023-02-19T04:48:26.128Z,32.10
2023-02-19T04:48:48.807Z,29.15
2023-02-19T04:49:11.567Z,30.38
2023-02-19T04:49:34.268Z,33.83
2023-02-19T04:49:56.978Z,31.45
2023-02-19T04:50:19.843Z,32.08
2023-02-19T04:50:42.491Z,32.28
2023-02-19T04:51:07.051Z,32.58
2023-02-19T04:51:29.800Z,32.97
2023-02-19T04:51:52.481Z,30.50
2023-02-19T04:52:15.217Z,29.63
2023-02-19T04:52:37.976Z,30.63
2023-02-19T04:53:00.654Z,33.60
2023-02-19T04:53:23.351Z,30.88
2023-02-19T04:53:46.070Z,30.10
2023-02-19T04:54:08.813Z,31.40
2023-02-19T04:54:31.568Z,31.95
2023-02-19T04:54:54.410Z,30.10
2023-02-19T04:55:17.437Z,32.50
2023-02-19T04:55:40.213Z,29.10
2023-02-19T04:56:07.188Z,31.85
2023-02-19T04:56:30.037Z,30.15
2023-02-19T04:56:52.926Z,28.73
2023-02-19T04:57:15.667Z,30.00
2023-02-19T04:57:38.422Z,29.23
2023-02-19T04:58:01.121Z,33.92
2023-02-19T04:58:24.090Z,31.30
2023-02-19T04:58:46.881Z,30.77
2023-02-19T04:59:09.606Z,30.05
2023-02-19T04:59:32.360Z,29.98
2023-02-19T04:59:55.055Z,31.35
2023-02-19T05:00:17.880Z,31.35
2023-02-19T05:00:40.575Z,28.85
2023-02-19T05:01:03.389Z,28.75
2023-02-19T05:01:26.285Z,33.90
2023-02-19T05:01:48.973Z,30.77
2023-02-19T05:02:11.682Z,31.15
2023-02-19T05:02:38.651Z,29.45
2023-02-19T05:03:01.597Z,29.88
2023-02-19T05:03:24.758Z,29.40
2023-02-19T05:03:47.602Z,28.27
2023-02-19T05:04:10.555Z,28.85
2023-02-19T05:04:33.592Z,30.92
2023-02-19T05:04:56.422Z,30.48
2023-02-19T05:05:19.162Z,27.95
2023-02-19T05:05:41.906Z,31.77
2023-02-19T05:06:04.975Z,26.77
2023-02-19T05:06:27.755Z,29.42
2023-02-19T05:06:50.450Z,30.05
2023-02-19T05:07:13.131Z,29.63
2023-02-19T05:07:35.875Z,28.85
2023-02-19T05:07:58.582Z,28.67
2023-02-19T05:08:21.297Z,30.33
2023-02-19T05:08:44.165Z,29.67
2023-02-19T05:09:06.886Z,29.40
2023-02-19T05:09:29.614Z,27.33
2023-02-19T05:09:52.470Z,26.30
2023-02-19T05:10:15.259Z,26.67
2023-02-19T05:10:40.330Z,28.88
2023-02-19T05:11:03.858Z,28.40
2023-02-19T05:11:26.898Z,28.92
2023-02-19T05:11:49.627Z,31.52
2023-02-19T05:12:12.346Z,28.95
2023-02-19T05:12:35.041Z,28.40
2023-02-19T05:12:58.197Z,28.60
2023-02-19T05:13:20.946Z,29.13
2023-02-19T05:13:43.706Z,29.35
2023-02-19T05:14:06.561Z,28.98
2023-02-19T05:14:29.246Z,30.23
2023-02-19T05:14:52.043Z,29.45
2023-02-19T05:15:14.990Z,28.00
2023-02-19T05:15:37.806Z,27.80
2023-02-19T05:16:01.344Z,30.05
2023-02-19T05:16:24.197Z,29.23
2023-02-19T05:16:47.784Z,28.92
2023-02-19T05:17:10.492Z,29.00
2023-02-19T05:17:34.592Z,29.88
2023-02-19T05:17:58.773Z,30.90
2023-02-19T05:18:21.542Z,29.77
2023-02-19T05:18:47.643Z,30.85
2023-02-19T05:19:11.560Z,29.80
2023-02-19T05:19:34.271Z,29.65
2023-02-19T05:19:56.972Z,29.80
2023-02-19T05:20:19.962Z,29.58
2023-02-19T05:20:42.726Z,32.03
2023-02-19T05:21:05.858Z,31.23
2023-02-19T05:21:28.500Z,31.98
2023-02-19T05:21:51.204Z,30.52
2023-02-19T05:22:13.922Z,33.00